createdAt,value
2022-09-17T00:01:33.250Z,15.00
2022-09-17T00:04:04.381Z,21.17
2022-09-17T00:06:33.204Z,16.08
2022-09-17T00:08:59.846Z,16.80
2022-09-17T00:11:30.291Z,18.15
2022-09-17T00:16:33.157Z,17.00
2022-09-17T00:19:01.059Z,19.23
2022-09-17T00:21:28.196Z,22.88
2022-09-17T00:24:04.545Z,22.35
2022-09-17T00:26:32.298Z,21.65
2022-09-17T00:28:59.860Z,18.65
2022-09-17T00:31:28.150Z,22.20
2022-09-17T00:33:54.914Z,19.42
2022-09-17T00:36:22.801Z,19.77
2022-09-17T00:38:55.996Z,20.63
2022-09-17T00:41:25.219Z,19.23
2022-09-17T00:44:22.542Z,21.98
2022-09-17T00:46:49.686Z,26.25
2022-09-17T00:49:24.373Z,25.02
2022-09-17T00:51:59.605Z,23.45
2022-09-17T00:54:27.511Z,28.38
2022-09-17T00:56:54.090Z,20.50
2022-09-17T00:59:22.919Z,17.23
2022-09-17T01:01:49.740Z,20.33
2022-09-17T01:04:25.846Z,17.05
2022-09-17T01:07:01.187Z,20.13
2022-09-17T01:09:53.437Z,20.08
2022-09-17T01:12:50.781Z,20.60
2022-09-17T01:15:36.100Z,22.83
2022-09-17T01:18:14.265Z,27.25
2022-09-17T01:20:56.309Z,20.73
2022-09-17T01:23:49.258Z,24.38
2022-09-17T01:26:50.535Z,24.65
2022-09-17T01:29:16.876Z,23.13
2022-09-17T01:31:54.282Z,24.10
2022-09-17T01:34:39.468Z,18.00
2022-09-17T01:37:30.703Z,24.83
2022-09-17T01:40:23.505Z,21.75
2022-09-17T01:42:54.614Z,21.35
2022-09-17T01:45:32.873Z,27.75
2022-09-17T01:48:20.495Z,24.45
2022-09-17T01:51:03.515Z,19.63
2022-09-17T01:53:57.927Z,24.90
2022-09-17T01:56:28.221Z,24.00
2022-09-17T01:59:41.923Z,22.02
2022-09-17T02:02:26.273Z,30.25
2022-09-17T02:05:07.696Z,23.77
2022-09-17T02:07:40.678Z,25.33
2022-09-17T02:10:12.533Z,25.92
2022-09-17T02:12:42.830Z,23.00
2022-09-17T02:15:22.881Z,25.25
2022-09-17T02:17:54.931Z,20.55
2022-09-17T02:20:28.676Z,24.13
2022-09-17T02:23:02.618Z,29.38
2022-09-17T02:25:38.771Z,23.73
2022-09-17T02:28:14.865Z,24.98
2022-09-17T02:30:41.434Z,20.15
2022-09-17T02:33:11.609Z,27.25
2022-09-17T02:35:40.201Z,19.92
2022-09-17T02:38:07.250Z,25.10
2022-09-17T02:40:46.207Z,18.63
2022-09-17T02:43:48.095Z,23.42
2022-09-17T02:46:30.311Z,21.95
2022-09-17T02:49:19.578Z,18.83
2022-09-17T02:52:11.281Z,21.98
2022-09-17T02:54:43.675Z,15.95
2022-09-17T02:57:53.551Z,19.35
2022-09-17T03:00:22.352Z,18.00
2022-09-17T03:02:57.498Z,20.98
2022-09-17T03:05:25.821Z,24.58
2022-09-17T03:07:56.996Z,22.27
2022-09-17T03:10:23.757Z,24.52
2022-09-17T03:12:56.521Z,20.38
2022-09-17T03:15:22.964Z,20.52
2022-09-17T03:17:53.278Z,19.98
2022-09-17T03:20:19.984Z,19.95
2022-09-17T03:23:00.758Z,21.15
2022-09-17T03:25:27.098Z,18.70
2022-09-17T03:27:53.498Z,18.85
2022-09-17T03:30:20.021Z,17.75
2022-09-17T03:32:46.956Z,21.60
2022-09-17T03:35:13.427Z,24.17
2022-09-17T03:37:39.808Z,21.80
2022-09-17T03:40:07.031Z,28.02
2022-09-17T03:42:33.532Z,17.90
2022-09-17T03:45:00.055Z,20.00
2022-09-17T03:47:26.474Z,19.33
2022-09-17T03:49:52.941Z,24.83
2022-09-17T03:52:19.329Z,17.17
2022-09-17T03:54:49.190Z,18.50
2022-09-17T03:57:15.575Z,20.25
2022-09-17T03:59:42.020Z,18.50
2022-09-17T04:02:08.466Z,21.80
2022-09-17T04:04:35.185Z,19.65
2022-09-17T04:07:01.761Z,16.15
2022-09-17T04:09:28.125Z,23.83
2022-09-17T04:11:57.674Z,19.27
2022-09-17T04:14:25.167Z,19.67
2022-09-17T04:16:51.618Z,21.63
2022-09-17T04:19:17.993Z,20.65
2022-09-17T04:21:44.421Z,16.42
2022-09-17T04:24:10.836Z,16.65
2022-09-17T04:26:37.336Z,17.45
2022-09-17T04:29:16.349Z,17.10
2022-09-17T04:31:43.044Z,19.40
2022-09-17T04:34:09.453Z,19.60
2022-09-17T04:36:35.794Z,18.75
2022-09-17T04:39:02.197Z,17.10
2022-09-17T04:41:28.631Z,19.02
2022-09-17T04:43:54.984Z,19.63
2022-09-17T04:46:27.797Z,17.10
2022-09-17T04:48:54.269Z,16.95
2022-09-17T04:51:20.633Z,16.77
2022-09-17T04:53:47.086Z,19.52
2022-09-17T04:56:13.510Z,20.35
2022-09-17T04:58:41.021Z,15.88
2022-09-17T05:01:08.401Z,18.10
2022-09-17T05:03:34.828Z,17.15
2022-09-17T05:06:05.574Z,17.33
2022-09-17T05:08:32.262Z,14.48
2022-09-17T05:10:58.803Z,19.52
2022-09-17T05:13:26.468Z,20.63
2022-09-17T05:15:56.566Z,16.77
2022-09-17T05:18:23.636Z,13.80
2022-09-17T05:20:51.460Z,20.60
2022-09-17T05:23:25.963Z,20.15
2022-09-17T05:33:46.884Z,17.15
2022-09-17T05:44:26.159Z,17.42
2022-09-17T05:46:53.709Z,20.98
2022-09-17T05:49:20.370Z,17.48
2022-09-17T05:51:47.032Z,16.55
2022-09-17T05:54:14.746Z,18.92
2022-09-17T05:56:41.408Z,17.25
2022-09-17T05:59:08.030Z,19.73
2022-09-17T06:01:34.609Z,18.20
2022-09-17T06:04:04.609Z,18.88
2022-09-17T06:06:32.928Z,19.73
2022-09-17T06:09:00.435Z,21.50
2022-09-17T06:11:42.829Z,18.88
2022-09-17T06:16:52.427Z,19.95
2022-09-17T06:19:19.109Z,16.38
2022-09-17T06:21:50.574Z,18.42
2022-09-17T06:24:20.358Z,16.25
2022-09-17T06:26:46.862Z,18.27
2022-09-17T06:29:32.849Z,14.35
2022-09-17T06:32:00.093Z,17.58
2022-09-17T06:34:28.955Z,16.55
2022-09-17T06:39:42.898Z,17.00
2022-09-17T06:47:48.490Z,15.30
2022-09-17T06:50:16.438Z,17.35
2022-09-17T06:52:53.608Z,17.05
2022-09-17T06:55:26.472Z,16.58
2022-09-17T06:57:53.118Z,13.65
2022-09-17T07:00:27.350Z,17.25
2022-09-17T07:03:02.109Z,16.85
2022-09-17T07:05:30.906Z,20.15
2022-09-17T07:08:09.203Z,15.30
2022-09-17T07:10:38.461Z,22.45
2022-09-17T07:13:05.203Z,18.63
2022-09-17T07:15:59.938Z,18.23
2022-09-17T07:18:27.513Z,13.80
2022-09-17T07:21:01.857Z,19.08
2022-09-17T07:23:37.893Z,17.67
2022-09-17T07:26:07.602Z,15.43
2022-09-17T07:28:39.417Z,20.08
2022-09-17T07:31:10.207Z,16.08
2022-09-17T07:33:41.852Z,19.27
2022-09-17T07:36:19.819Z,16.50
2022-09-17T07:38:47.265Z,15.48
2022-09-17T07:41:16.130Z,19.02
2022-09-17T07:43:44.386Z,17.15
2022-09-17T07:46:16.692Z,18.77
2022-09-17T07:48:43.630Z,18.27
2022-09-17T07:51:18.974Z,17.73
2022-09-17T07:53:45.851Z,13.88
2022-09-17T07:56:12.436Z,16.67
2022-09-17T07:58:39.322Z,17.88
2022-09-17T08:01:17.294Z,16.27
2022-09-17T08:03:49.034Z,17.15
2022-09-17T08:06:19.680Z,18.35
2022-09-17T08:08:46.828Z,18.15
2022-09-17T08:11:51.713Z,18.75
2022-09-17T08:14:16.376Z,17.45
2022-09-17T08:16:46.479Z,18.92
2022-09-17T08:19:13.225Z,18.17
2022-09-17T08:21:39.844Z,17.38
2022-09-17T08:24:06.577Z,14.27
2022-09-17T08:26:33.105Z,18.60
2022-09-17T08:28:59.693Z,14.98
2022-09-17T08:31:28.416Z,13.68
2022-09-17T08:33:55.078Z,16.42
2022-09-17T08:36:25.207Z,16.77
2022-09-17T08:38:56.191Z,13.50
2022-09-17T08:42:04.874Z,16.42
2022-09-17T08:44:40.817Z,17.55
2022-09-17T08:47:20.988Z,15.32
2022-09-17T08:49:57.817Z,18.42
2022-09-17T08:52:48.055Z,12.82
2022-09-17T08:55:49.049Z,13.00
2022-09-17T08:58:42.789Z,13.73
2022-09-17T09:15:15.611Z,16.48
2022-09-17T09:17:47.028Z,13.48
2022-09-17T09:25:53.317Z,11.52
2022-09-17T09:36:23.736Z,14.25
2022-09-17T09:39:09.888Z,13.80
2022-09-17T09:47:00.565Z,12.68
2022-09-17T09:50:01.010Z,12.55
2022-09-17T09:55:40.610Z,10.80
2022-09-17T09:58:16.637Z,10.13
2022-09-17T10:00:43.721Z,11.75
2022-09-17T10:03:26.622Z,10.32
2022-09-17T10:05:58.836Z,10.40
2022-09-17T10:08:26.920Z,12.40
2022-09-17T10:11:05.492Z,11.50
2022-09-17T10:13:35.706Z,10.27
2022-09-17T10:16:21.417Z,11.57
2022-09-17T10:18:49.633Z,10.85
2022-09-17T10:21:42.898Z,10.95
2022-09-17T10:24:27.062Z,10.02
2022-09-17T10:27:06.580Z,9.30
2022-09-17T10:29:34.520Z,8.73
2022-09-17T10:32:02.785Z,9.63
2022-09-17T10:34:31.570Z,12.50
2022-09-17T10:36:59.686Z,9.07
2022-09-17T10:39:48.621Z,9.18
2022-09-17T10:43:02.846Z,9.38
2022-09-17T10:45:31.312Z,9.82
2022-09-17T10:48:00.078Z,9.63
2022-09-17T10:50:34.620Z,10.73
2022-09-17T10:53:05.806Z,9.25
2022-09-17T10:56:14.610Z,10.10
2022-09-17T10:58:56.912Z,10.98
2022-09-17T11:01:32.482Z,9.82
2022-09-17T11:04:33.213Z,7.47
2022-09-17T11:07:15.611Z,8.30
2022-09-17T11:10:00.753Z,6.13
2022-09-17T11:12:47.599Z,6.68
2022-09-17T11:15:43.372Z,5.40
2022-09-17T11:18:21.890Z,8.88
2022-09-17T11:21:04.012Z,11.43
2022-09-17T11:23:51.661Z,10.80
2022-09-17T11:26:24.403Z,10.38
2022-09-17T11:29:10.633Z,8.80
2022-09-17T11:31:52.615Z,8.13
2022-09-17T11:34:39.442Z,7.88
2022-09-17T11:37:13.590Z,7.60
2022-09-17T11:39:57.421Z,7.35
2022-09-17T11:42:42.243Z,8.57
2022-09-17T11:45:20.379Z,8.15
2022-09-17T11:47:49.933Z,6.63
2022-09-17T11:50:22.887Z,7.43
2022-09-17T11:53:05.039Z,8.35
2022-09-17T11:55:56.388Z,8.32
2022-09-17T11:58:44.736Z,8.27
2022-09-17T12:01:19.171Z,8.23
2022-09-17T12:03:59.331Z,7.25
2022-09-17T12:06:39.314Z,7.45
2022-09-17T12:09:22.239Z,6.30
2022-09-17T12:12:26.340Z,6.43
2022-09-17T12:15:05.948Z,6.75
2022-09-17T12:17:45.099Z,7.10
2022-09-17T12:20:34.319Z,6.72
2022-09-17T12:23:06.283Z,6.20
2022-09-17T12:25:49.525Z,6.32
2022-09-17T12:28:24.567Z,6.65
2022-09-17T12:31:02.707Z,7.00
2022-09-17T12:33:37.724Z,5.40
2022-09-17T12:36:19.493Z,7.55
2022-09-17T12:39:10.277Z,6.05
2022-09-17T12:41:47.511Z,5.32
2022-09-17T12:44:41.108Z,3.67
2022-09-17T12:47:59.795Z,4.40
2022-09-17T12:50:47.547Z,3.30
2022-09-17T12:53:30.554Z,4.38
2022-09-17T12:56:15.429Z,4.03
2022-09-17T12:59:05.592Z,5.82
2022-09-17T13:01:55.415Z,6.35
2022-09-17T13:04:59.943Z,4.22
2022-09-17T13:07:41.781Z,4.53
2022-09-17T13:10:17.370Z,4.85
2022-09-17T13:13:01.561Z,4.57
2022-09-17T13:15:38.926Z,5.70
2022-09-17T13:18:26.432Z,5.85
2022-09-17T13:21:03.536Z,4.82
2022-09-17T13:23:36.420Z,5.43
2022-09-17T13:26:07.632Z,6.32
2022-09-17T13:28:47.423Z,4.60
2022-09-17T13:31:20.753Z,5.75
2022-09-17T13:34:00.915Z,6.35
2022-09-17T13:36:41.488Z,5.93
2022-09-17T13:39:10.951Z,5.80
2022-09-17T13:41:43.633Z,6.97
2022-09-17T13:44:12.482Z,7.65
2022-09-17T13:46:39.705Z,6.15
2022-09-17T13:49:14.791Z,7.18
2022-09-17T13:51:41.159Z,5.82
2022-09-17T13:54:15.691Z,5.57
2022-09-17T13:56:46.175Z,6.82
2022-09-17T13:59:23.965Z,6.68
2022-09-17T14:02:17.950Z,6.07
2022-09-17T14:04:44.459Z,6.80
2022-09-17T14:07:23.660Z,6.65
2022-09-17T14:10:01.652Z,8.55
2022-09-17T14:12:52.806Z,7.68
2022-09-17T14:15:36.321Z,7.03
2022-09-17T14:18:37.452Z,7.32
2022-09-17T14:21:20.290Z,7.93
2022-09-17T14:23:54.690Z,9.40
2022-09-17T14:26:44.605Z,8.27
2022-09-17T14:29:34.908Z,8.60
2022-09-17T14:34:39.201Z,9.32
2022-09-17T14:37:12.475Z,8.05
2022-09-17T14:39:40.587Z,9.63
2022-09-17T14:42:16.041Z,10.60
2022-09-17T14:44:58.856Z,10.80
2022-09-17T14:47:27.052Z,9.32
2022-09-17T14:49:54.480Z,9.02
2022-09-17T14:52:32.191Z,11.77
2022-09-17T14:55:20.510Z,12.52
2022-09-17T14:57:52.582Z,11.13
2022-09-17T15:00:22.734Z,9.45
2022-09-17T15:02:55.785Z,10.02
2022-09-17T15:05:39.122Z,8.63
2022-09-17T15:08:21.680Z,7.15
2022-09-17T15:11:03.455Z,7.97
2022-09-17T15:13:32.903Z,8.13
2022-09-17T15:16:03.418Z,6.20
2022-09-17T15:18:38.294Z,7.38
2022-09-17T15:21:12.039Z,5.93
2022-09-17T15:23:39.454Z,7.88
2022-09-17T15:26:07.227Z,5.00
2022-09-17T15:28:44.035Z,5.45
2022-09-17T15:31:18.604Z,5.15
2022-09-17T15:33:48.532Z,4.78
2022-09-17T15:36:21.351Z,5.80
2022-09-17T15:38:48.817Z,4.45
2022-09-17T15:41:20.803Z,5.00
2022-09-17T15:43:49.446Z,4.07
2022-09-17T15:46:28.503Z,3.88
2022-09-17T15:48:59.378Z,4.00
2022-09-17T15:51:35.734Z,3.70
2022-09-17T15:54:06.924Z,5.68
2022-09-17T15:56:55.985Z,20.63
2022-09-17T15:59:30.649Z,92.53
2022-09-17T16:02:00.044Z,44.42
2022-09-17T16:04:28.246Z,23.10
2022-09-17T16:07:13.087Z,11.52
2022-09-17T16:09:47.070Z,6.20
2022-09-17T16:12:25.542Z,5.35
2022-09-17T16:14:55.156Z,4.00
2022-09-17T16:17:28.038Z,6.35
2022-09-17T16:19:56.302Z,6.53
2022-09-17T16:22:23.126Z,6.45
2022-09-17T16:24:49.763Z,5.30
2022-09-17T16:27:26.156Z,4.68
2022-09-17T16:29:58.405Z,4.88
2022-09-17T16:32:31.046Z,4.10
2022-09-17T16:34:57.687Z,3.95
2022-09-17T16:37:24.205Z,5.05
2022-09-17T16:39:57.634Z,6.00
2022-09-17T16:42:24.449Z,6.20
2022-09-17T16:44:53.643Z,5.05
2022-09-17T16:47:26.325Z,4.55
2022-09-17T16:49:52.732Z,5.43
2022-09-17T16:52:19.275Z,5.00
2022-09-17T16:54:45.783Z,5.07
2022-09-17T16:57:12.239Z,6.75
2022-09-17T16:59:38.675Z,5.95
2022-09-17T17:02:12.265Z,5.35
2022-09-17T17:04:38.699Z,5.00
2022-09-17T17:07:07.351Z,7.75
2022-09-17T17:09:33.784Z,5.55
2022-09-17T17:12:00.404Z,6.35
2022-09-17T17:14:26.792Z,8.02
2022-09-17T17:16:53.339Z,6.90
2022-09-17T17:19:20.095Z,6.00
2022-09-17T17:21:47.243Z,5.78
2022-09-17T17:24:13.824Z,6.00
2022-09-17T17:26:40.196Z,5.38
2022-09-17T17:29:09.038Z,6.50
2022-09-17T17:31:35.768Z,8.23
2022-09-17T17:34:02.217Z,5.32
2022-09-17T17:36:28.833Z,6.00
2022-09-17T17:38:59.875Z,4.90
2022-09-17T17:41:28.339Z,5.57
2022-09-17T17:43:56.089Z,6.28
2022-09-17T17:46:23.758Z,5.60
2022-09-17T17:48:51.230Z,4.40
2022-09-17T17:51:19.361Z,6.18
2022-09-17T17:53:46.025Z,4.43
2022-09-17T17:56:13.320Z,6.55
2022-09-17T17:58:44.772Z,5.65
2022-09-17T18:01:22.497Z,6.40
2022-09-17T18:03:49.836Z,6.30
2022-09-17T18:06:21.441Z,5.95
2022-09-17T18:08:47.854Z,4.93
2022-09-17T18:11:18.978Z,5.50
2022-09-17T18:13:45.571Z,4.35
2022-09-17T18:16:14.017Z,4.15
2022-09-17T18:18:44.849Z,5.82
2022-09-17T18:21:15.869Z,4.80
2022-09-17T18:23:45.821Z,6.60
2022-09-17T18:26:17.922Z,4.53
2022-09-17T18:28:45.225Z,4.95
2022-09-17T18:31:28.802Z,5.30
2022-09-17T18:34:07.031Z,4.97
2022-09-17T18:36:35.293Z,5.50
2022-09-17T18:42:00.039Z,6.93
2022-09-17T18:44:28.782Z,4.95
2022-09-17T18:46:55.336Z,4.60
2022-09-17T18:49:22.060Z,5.07
2022-09-17T18:51:48.837Z,5.03
2022-09-17T18:54:15.534Z,4.25
2022-09-17T18:56:42.722Z,3.85
2022-09-17T18:59:10.270Z,4.78
2022-09-17T19:01:36.991Z,4.38
2022-09-17T19:04:07.816Z,5.28
2022-09-17T19:06:34.634Z,6.05
2022-09-17T19:09:03.282Z,7.22
2022-09-17T19:11:30.280Z,6.47
2022-09-17T19:13:56.777Z,5.07
2022-09-17T19:16:23.503Z,5.50
2022-09-17T19:18:52.502Z,3.88
2022-09-17T19:21:23.626Z,4.57
2022-09-17T19:23:52.461Z,3.78
2022-09-17T19:26:27.004Z,3.75
2022-09-17T19:29:00.720Z,3.70
2022-09-17T19:31:28.122Z,3.40
2022-09-17T19:33:56.270Z,3.85
2022-09-17T19:36:22.916Z,5.22
2022-09-17T19:38:49.546Z,3.92
2022-09-17T19:41:23.092Z,3.72
2022-09-17T19:43:53.753Z,2.83
2022-09-17T19:46:24.774Z,3.35
2022-09-17T19:48:56.325Z,3.80
2022-09-17T19:51:25.479Z,3.70
2022-09-17T19:53:52.676Z,3.20
2022-09-17T19:56:21.637Z,3.35
2022-09-17T19:58:48.407Z,4.03
2022-09-17T20:01:15.874Z,2.80
2022-09-17T20:03:44.944Z,2.58
2022-09-17T20:06:15.983Z,3.38
2022-09-17T20:08:47.458Z,5.97
2022-09-17T20:11:16.095Z,3.15
2022-09-17T20:13:48.336Z,2.30
2022-09-17T20:16:20.144Z,2.35
2022-09-17T20:18:52.704Z,2.83
2022-09-17T20:21:28.133Z,3.17
2022-09-17T20:23:55.556Z,4.05
2022-09-17T20:26:24.016Z,3.70
2022-09-17T20:28:58.520Z,3.70
2022-09-17T20:31:28.166Z,3.17
2022-09-17T20:34:01.915Z,3.53
2022-09-17T20:36:38.306Z,3.08
2022-09-17T20:39:21.012Z,3.25
2022-09-17T20:41:49.211Z,3.92
2022-09-17T20:44:18.012Z,3.28
2022-09-17T20:46:48.424Z,4.63
2022-09-17T20:49:15.198Z,4.57
2022-09-17T20:51:45.049Z,7.50
2022-09-17T20:54:11.927Z,8.20
2022-09-17T20:56:38.467Z,6.70
2022-09-17T20:59:19.012Z,6.60
2022-09-17T21:26:18.770Z,9.07
2022-09-17T21:28:48.043Z,9.70
2022-09-17T21:31:32.385Z,10.75
2022-09-17T21:34:02.121Z,10.88
2022-09-17T21:36:30.628Z,13.93
2022-09-17T21:39:02.520Z,10.30
2022-09-17T21:41:31.778Z,12.68
2022-09-17T21:44:00.523Z,9.82
2022-09-17T21:46:34.657Z,10.45
2022-09-17T21:49:04.535Z,9.40
2022-09-17T21:51:57.428Z,9.60
2022-09-17T21:54:31.577Z,11.60
2022-09-17T21:56:59.980Z,12.23
2022-09-17T21:59:27.341Z,12.70
2022-09-17T22:01:53.871Z,12.68
2022-09-17T22:04:22.309Z,12.50
2022-09-17T22:06:49.885Z,13.38
2022-09-17T22:09:22.188Z,13.93
2022-09-17T22:11:50.915Z,14.82
2022-09-17T22:14:20.327Z,11.38
2022-09-17T22:16:49.300Z,16.35
2022-09-17T22:19:21.864Z,12.98
2022-09-17T22:21:51.393Z,15.60
2022-09-17T22:24:22.626Z,13.00
2022-09-17T22:26:56.496Z,14.93
2022-09-17T22:29:24.737Z,14.88
2022-09-17T22:31:52.954Z,16.38
2022-09-17T22:34:23.097Z,13.52
2022-09-17T22:36:50.448Z,15.88
2022-09-17T22:39:20.227Z,16.63
2022-09-17T22:41:47.091Z,17.70
2022-09-17T22:44:19.109Z,12.60
2022-09-17T22:46:55.498Z,15.75
2022-09-17T23:11:39.909Z,14.52
2022-09-17T23:14:09.816Z,11.30
2022-09-17T23:16:55.059Z,15.43
2022-09-17T23:22:02.052Z,16.98
2022-09-17T23:35:12.321Z,15.10
2022-09-17T23:37:39.084Z,14.07
2022-09-17T23:45:40.103Z,14.13
2022-09-17T23:48:06.821Z,14.73
2022-09-17T23:50:33.436Z,16.02
2022-09-17T23:53:07.157Z,12.98
2022-09-17T23:55:33.856Z,12.80
2022-09-17T23:58:04.028Z,16.60
